Aviation Digital Data Service (ADDS)

Output produced by TAFs form (2240 UTC 27 February 2015)
found at http://aviationweather.gov/adds/tafs/
 
KHOB 271855Z 2719/2818 08011KT P6SM OVC020 
     TEMPO 2719/2722 6SM -SNPL BR OVC014 
     FM280400 09010KT 3SM -FZDZSNPL BR OVC009 
     TEMPO 2804/2808 1SM -FZDZSNPL BR OVC003